Time;durP1;ratioP1;P1;durP2;ratioP2;P2;SDS_P1;SDS_P2;PMS_P1;PMS_P2;Temp;Humidity;BMP_temperature;BMP_pressure;BME280_temperature;BME280_humidity;BME280_pressure;Samples;Min_cycle;Max_cycle;Signal;HPM_P1;HPM_P2
2021/03/06 00:00:09;;;;;;;13.50;6.23;;;-1.00;89.30;;;;;;5044966;28;20040;-73
2021/03/06 00:02:35;;;;;;;11.00;5.50;;;-1.00;89.50;;;;;;5056489;28;20074;-74
2021/03/06 00:05:01;;;;;;;9.47;4.90;;;-1.10;89.50;;;;;;5046217;28;20044;-73
2021/03/06 00:07:27;;;;;;;9.13;5.70;;;-1.10;89.20;;;;;;5067273;28;20044;-73
2021/03/06 00:09:54;;;;;;;10.33;4.43;;;-1.00;89.70;;;;;;5092944;28;20130;-73
2021/03/06 00:12:23;;;;;;;13.00;6.13;;;-1.10;90.40;;;;;;5100463;28;20050;-73
2021/03/06 00:14:51;;;;;;;13.73;6.10;;;-1.10;90.50;;;;;;5089179;28;20046;-73
2021/03/06 00:17:17;;;;;;;11.93;5.33;;;-1.10;90.60;;;;;;5084530;28;20039;-74
2021/03/06 00:19:44;;;;;;;13.53;5.57;;;-1.10;90.70;;;;;;5083160;28;20035;-74
2021/03/06 00:22:10;;;;;;;13.03;5.30;;;-1.10;90.60;;;;;;5103001;28;20047;-73
2021/03/06 00:24:36;;;;;;;8.33;4.40;;;-1.20;90.40;;;;;;5100534;28;21628;-77
2021/03/06 00:27:02;;;;;;;13.03;6.20;;;-1.20;90.30;;;;;;5052019;28;20032;-78
2021/03/06 00:29:28;;;;;;;10.93;5.97;;;-1.20;90.40;;;;;;5081809;28;20414;-77
2021/03/06 00:31:54;;;;;;;10.13;5.57;;;-1.10;90.70;;;;;;5089835;28;20043;-77
2021/03/06 00:34:20;;;;;;;12.57;6.43;;;-1.10;91.40;;;;;;5091708;28;20044;-77
2021/03/06 00:36:46;;;;;;;13.17;6.20;;;-1.10;90.80;;;;;;5076056;28;20055;-77
2021/03/06 00:39:12;;;;;;;9.87;5.13;;;-1.10;90.30;;;;;;5064577;28;20526;-77
2021/03/06 00:41:38;;;;;;;13.17;5.63;;;-1.20;90.30;;;;;;5106262;28;20572;-77
2021/03/06 00:44:04;;;;;;;7.87;5.13;;;-1.30;90.50;;;;;;5105806;28;20035;-77
2021/03/06 00:46:30;;;;;;;13.07;5.70;;;-1.30;90.40;;;;;;5093016;28;20457;-77
2021/03/06 00:48:56;;;;;;;13.03;6.33;;;-1.20;90.40;;;;;;5102345;28;20093;-77
2021/03/06 00:51:23;;;;;;;17.20;8.73;;;-1.20;90.50;;;;;;5104646;28;20654;-77
2021/03/06 00:53:49;;;;;;;13.57;6.27;;;-1.20;90.80;;;;;;5087717;28;20028;-77
2021/03/06 00:56:18;;;;;;;13.67;6.57;;;-1.10;91.00;;;;;;5079556;28;20400;-76
2021/03/06 00:58:48;;;;;;;11.77;6.27;;;-1.20;90.80;;;;;;5075720;28;20039;-77
2021/03/06 01:01:15;;;;;;;17.35;8.63;;;-1.20;90.80;;;;;;5085293;28;20104;-77
2021/03/06 01:03:41;;;;;;;14.80;7.83;;;-1.20;90.90;;;;;;5089161;28;20482;-77
2021/03/06 01:06:07;;;;;;;14.17;6.80;;;-1.20;90.90;;;;;;5106190;28;20044;-77
2021/03/06 01:08:34;;;;;;;19.17;8.13;;;-1.20;91.10;;;;;;5095928;28;20053;-77
2021/03/06 01:11:04;;;;;;;14.18;5.65;;;-1.20;90.90;;;;;;5057876;28;20557;-77
2021/03/06 01:13:30;;;;;;;8.50;4.80;;;-1.30;90.80;;;;;;5110127;28;20032;-77
2021/03/06 01:15:56;;;;;;;15.70;7.60;;;-1.30;90.70;;;;;;5084766;28;20078;-77
2021/03/06 01:18:22;;;;;;;11.93;6.83;;;-1.30;90.80;;;;;;5089814;28;21204;-77
2021/03/06 01:20:51;;;;;;;16.40;8.20;;;-1.30;90.90;;;;;;5068742;28;20031;-77
2021/03/06 01:23:17;;;;;;;9.87;6.20;;;-1.30;90.90;;;;;;5080667;28;20046;-76
2021/03/06 01:25:43;;;;;;;12.27;6.57;;;-1.20;91.20;;;;;;5087533;28;20109;-77
2021/03/06 01:28:09;;;;;;;14.13;6.63;;;-1.30;91.40;;;;;;5102562;28;20585;-77
2021/03/06 01:30:38;;;;;;;13.37;6.37;;;-1.20;91.70;;;;;;5100528;28;20073;-77
2021/03/06 01:33:05;;;;;;;16.53;7.77;;;-1.10;91.70;;;;;;5084998;28;20039;-77
2021/03/06 01:35:32;;;;;;;15.40;7.50;;;-1.20;91.50;;;;;;5097051;28;20031;-77
2021/03/06 01:37:58;;;;;;;14.70;7.20;;;-1.10;92.20;;;;;;5084053;28;20036;-77
2021/03/06 01:40:34;;;;;;;8.97;5.93;;;-1.10;91.70;;;;;;5087331;28;20043;-77
2021/03/06 01:43:11;;;;;;;18.40;7.57;;;-1.00;91.50;;;;;;5088455;28;20054;-77
2021/03/06 01:45:38;;;;;;;11.17;6.10;;;-1.10;91.70;;;;;;5078359;28;20035;-77
2021/03/06 01:48:08;;;;;;;13.80;8.10;;;-1.20;91.70;;;;;;5099367;28;20128;-77
2021/03/06 01:50:39;;;;;;;13.80;6.85;;;-1.10;91.90;;;;;;5089906;28;20584;-77
2021/03/06 01:53:08;;;;;;;12.53;7.00;;;-1.10;91.80;;;;;;5088757;28;20440;-77
2021/03/06 01:55:37;;;;;;;12.30;5.53;;;-1.10;92.10;;;;;;5103336;27;20681;-77
2021/03/06 01:58:06;;;;;;;14.23;6.20;;;-1.10;92.10;;;;;;5073441;28;20051;-77
2021/03/06 02:00:32;;;;;;;10.90;5.73;;;-1.00;92.10;;;;;;5106763;28;20032;-77
2021/03/06 02:03:00;;;;;;;10.87;6.07;;;-1.00;92.20;;;;;;5087265;28;20044;-77
2021/03/06 02:05:26;;;;;;;16.03;8.90;;;-0.90;92.20;;;;;;5069830;28;20489;-77
2021/03/06 02:07:52;;;;;;;13.87;6.40;;;-0.80;92.10;;;;;;5104220;28;20121;-77
2021/03/06 02:10:28;;;;;;;15.83;7.93;;;-0.80;92.10;;;;;;5081555;28;20656;-77
2021/03/06 02:13:31;;;;;;;16.87;7.00;;;-0.80;92.00;;;;;;5083933;28;20086;-77
2021/03/06 02:16:39;;;;;;;12.53;7.63;;;-0.80;92.20;;;;;;5107158;28;20051;-78
2021/03/06 02:19:43;;;;;;;14.73;7.53;;;-0.70;92.50;;;;;;5050799;28;20040;-77
2021/03/06 02:22:16;;;;;;;16.93;8.70;;;-0.70;92.40;;;;;;5087480;28;20040;-77
2021/03/06 02:24:57;;;;;;;12.13;6.03;;;-0.60;92.50;;;;;;5082865;28;20039;-77
2021/03/06 02:27:55;;;;;;;11.33;6.07;;;-0.60;92.30;;;;;;5099464;28;20490;-78
2021/03/06 02:30:22;;;;;;;11.73;5.53;;;-0.60;92.30;;;;;;5085643;28;20092;-78
2021/03/06 02:32:50;;;;;;;10.57;6.30;;;-0.60;92.30;;;;;;5105649;28;21812;-77
2021/03/06 02:35:21;;;;;;;9.13;5.33;;;-0.50;92.30;;;;;;5085315;28;20387;-78
2021/03/06 02:38:06;;;;;;;;;;;-0.50;92.60;;;;;;5101522;28;20092;-77
2021/03/06 02:40:35;;;;;;;12.60;6.10;;;-0.40;93.10;;;;;;5100801;28;19920;-78
2021/03/06 02:43:02;;;;;;;13.97;7.13;;;-0.40;92.60;;;;;;5092103;28;20042;-77
2021/03/06 02:45:28;;;;;;;14.10;8.07;;;-0.40;92.30;;;;;;5095899;28;20036;-77
2021/03/06 02:47:56;;;;;;;11.57;7.87;;;-0.40;92.30;;;;;;5082508;28;20510;-77
2021/03/06 02:50:22;;;;;;;11.00;6.40;;;-0.40;92.30;;;;;;5093346;28;20124;-77
2021/03/06 02:52:51;;;;;;;12.17;5.73;;;-0.30;92.40;;;;;;5065942;28;20513;-77
2021/03/06 02:55:17;;;;;;;14.43;6.93;;;-0.40;92.40;;;;;;5075784;28;20554;-77
2021/03/06 02:58:11;;;;;;;12.53;5.60;;;-0.30;92.50;;;;;;5074203;28;20040;-77
2021/03/06 03:00:51;;;;;;;10.87;5.80;;;-0.30;92.60;;;;;;5076421;28;20040;-77
2021/03/06 03:03:33;;;;;;;13.00;7.57;;;-0.30;92.60;;;;;;5085220;28;20038;-73
2021/03/06 03:05:59;;;;;;;12.33;6.23;;;-0.30;92.70;;;;;;5096943;28;20036;-73
2021/03/06 03:08:38;;;;;;;10.27;5.90;;;-0.30;92.70;;;;;;5084157;28;20084;-73
2021/03/06 03:11:11;;;;;;;12.60;6.90;;;-0.20;92.80;;;;;;5081455;28;20056;-74
2021/03/06 03:13:42;;;;;;;14.80;7.60;;;-0.20;92.70;;;;;;5078359;28;20044;-74
2021/03/06 03:16:19;;;;;;;15.80;7.50;;;-0.20;92.80;;;;;;5072378;28;20040;-74
2021/03/06 03:19:03;;;;;;;17.10;6.60;;;-0.10;92.70;;;;;;5075273;28;20033;-74
2021/03/06 03:21:32;;;;;;;12.40;6.40;;;-0.10;93.20;;;;;;5066286;28;20036;-73
2021/03/06 03:24:14;;;;;;;19.27;7.80;;;-0.10;93.00;;;;;;5079348;28;20044;-74
2021/03/06 03:26:42;;;;;;;15.40;7.03;;;-0.10;92.90;;;;;;5061991;28;20049;-74
2021/03/06 03:29:09;;;;;;;14.20;7.23;;;-0.10;92.90;;;;;;5077268;28;20036;-74
2021/03/06 03:31:39;;;;;;;20.90;7.20;;;-0.10;92.90;;;;;;5075985;28;20403;-74
2021/03/06 03:34:07;;;;;;;12.40;6.70;;;0.00;93.10;;;;;;5077297;28;20036;-74
2021/03/06 03:36:35;;;;;;;15.10;6.90;;;0.00;93.30;;;;;;5063891;28;20044;-74
2021/03/06 03:39:01;;;;;;;14.00;7.33;;;0.00;93.00;;;;;;5063169;28;20032;-74
2021/03/06 03:41:28;;;;;;;19.73;11.23;;;0.10;93.10;;;;;;5082265;28;20036;-74
2021/03/06 03:43:54;;;;;;;16.30;9.33;;;0.10;93.30;;;;;;5060103;28;20469;-74
2021/03/06 03:46:21;;;;;;;15.23;9.37;;;0.10;93.50;;;;;;5048808;28;20052;-74
2021/03/06 03:48:48;;;;;;;13.37;7.40;;;0.10;93.60;;;;;;5065194;28;20044;-74
2021/03/06 03:51:15;;;;;;;13.83;7.43;;;0.10;93.60;;;;;;5047631;28;20073;-74
2021/03/06 03:53:41;;;;;;;16.93;8.60;;;0.10;93.60;;;;;;5084727;28;20040;-73
2021/03/06 03:56:08;;;;;;;14.30;6.73;;;0.20;93.70;;;;;;5050272;28;20036;-74
2021/03/06 03:58:34;;;;;;;20.03;7.80;;;0.20;93.60;;;;;;5083906;28;20036;-74
2021/03/06 04:01:01;;;;;;;15.87;6.90;;;0.20;93.60;;;;;;5063184;28;20066;-74
2021/03/06 04:03:28;;;;;;;16.03;7.30;;;0.20;93.60;;;;;;5082988;28;20550;-74
2021/03/06 04:05:56;;;;;;;12.90;5.13;;;0.30;93.80;;;;;;5082957;28;20112;-73
2021/03/06 04:08:22;;;;;;;14.33;8.23;;;0.30;93.70;;;;;;5066733;28;20029;-74
2021/03/06 04:10:52;;;;;;;13.77;7.73;;;0.30;93.90;;;;;;5086654;28;20056;-78
2021/03/06 04:13:18;;;;;;;16.57;7.73;;;0.30;93.60;;;;;;5067748;28;20036;-78
2021/03/06 04:15:44;;;;;;;13.87;7.33;;;0.30;93.80;;;;;;5067701;28;20086;-79
2021/03/06 04:18:10;;;;;;;11.97;7.70;;;0.40;93.80;;;;;;5083405;28;20036;-78
2021/03/06 04:20:36;;;;;;;19.20;6.93;;;0.50;93.90;;;;;;5069485;28;20086;-78
2021/03/06 04:23:02;;;;;;;9.27;5.23;;;0.30;93.80;;;;;;5085143;28;20032;-79
2021/03/06 04:25:28;;;;;;;9.27;4.90;;;0.40;93.90;;;;;;5079362;28;20132;-78
2021/03/06 04:27:54;;;;;;;12.63;5.93;;;0.40;94.00;;;;;;5086213;28;20028;-78
2021/03/06 04:30:21;;;;;;;14.90;6.97;;;0.30;94.00;;;;;;5062278;28;20036;-78
2021/03/06 04:32:46;;;;;;;14.40;7.30;;;0.40;93.90;;;;;;5067461;28;20047;-78
2021/03/06 04:35:12;;;;;;;11.43;5.77;;;0.40;93.90;;;;;;5078780;28;20040;-78
2021/03/06 04:37:39;;;;;;;14.13;6.33;;;0.50;93.90;;;;;;5084885;28;20036;-78
2021/03/06 04:40:08;;;;;;;12.37;5.83;;;0.50;94.00;;;;;;5035314;28;20089;-78
2021/03/06 04:42:35;;;;;;;15.40;5.90;;;0.50;93.90;;;;;;5083360;28;20383;-79
2021/03/06 04:45:01;;;;;;;13.37;6.87;;;0.50;94.00;;;;;;5066234;28;20064;-78
2021/03/06 04:47:27;;;;;;;10.43;5.27;;;0.60;94.30;;;;;;5065374;28;20068;-78
2021/03/06 04:49:53;;;;;;;16.23;5.83;;;0.70;94.10;;;;;;5084811;28;20043;-78
2021/03/06 04:52:19;;;;;;;12.53;5.53;;;0.60;94.00;;;;;;5078957;28;20040;-78
2021/03/06 04:54:45;;;;;;;12.67;6.07;;;0.70;94.00;;;;;;5085895;28;20063;-78
2021/03/06 04:57:12;;;;;;;13.03;5.97;;;0.70;94.00;;;;;;5076251;28;20624;-79
2021/03/06 04:59:40;;;;;;;17.07;6.70;;;0.70;94.00;;;;;;5051486;28;20052;-79
2021/03/06 05:02:05;;;;;;;12.67;5.93;;;0.80;94.10;;;;;;5066726;28;20135;-78
2021/03/06 05:04:32;;;;;;;12.53;5.93;;;0.90;94.20;;;;;;5067071;28;20107;-78
2021/03/06 05:06:58;;;;;;;10.90;5.43;;;0.90;94.20;;;;;;5077721;28;20123;-79
2021/03/06 05:09:24;;;;;;;15.73;5.97;;;0.90;94.30;;;;;;5091968;28;20130;-78
2021/03/06 05:11:50;;;;;;;26.97;6.90;;;0.90;94.40;;;;;;5082598;28;20094;-79
2021/03/06 05:14:19;;;;;;;12.80;5.27;;;0.90;94.20;;;;;;5063789;28;20044;-79
2021/03/06 05:16:45;;;;;;;12.77;6.13;;;0.90;94.20;;;;;;5066084;28;20047;-78
2021/03/06 05:19:11;;;;;;;12.53;5.93;;;0.90;94.30;;;;;;5067229;28;20044;-78
2021/03/06 05:21:37;;;;;;;11.00;4.80;;;0.90;94.30;;;;;;5079033;28;20102;-79
2021/03/06 05:24:05;;;;;;;12.00;5.53;;;0.90;94.30;;;;;;5053604;28;20045;-78
2021/03/06 05:26:31;;;;;;;11.30;5.20;;;0.90;94.40;;;;;;5069587;28;20044;-79
2021/03/06 05:29:00;;;;;;;9.50;5.33;;;0.90;94.30;;;;;;5070680;28;20036;-79
2021/03/06 05:31:27;;;;;;;10.27;5.70;;;0.80;94.40;;;;;;5082062;28;20478;-78
2021/03/06 05:33:52;;;;;;;15.20;6.37;;;0.90;94.30;;;;;;5051804;28;20044;-78
2021/03/06 05:36:22;;;;;;;11.93;6.33;;;0.90;94.20;;;;;;5067723;28;20532;-79
2021/03/06 05:38:47;;;;;;;11.63;4.93;;;0.90;94.20;;;;;;5087542;28;20032;-79
2021/03/06 05:41:14;;;;;;;13.13;6.20;;;0.80;94.40;;;;;;5061486;28;20403;-79
2021/03/06 05:43:40;;;;;;;12.77;6.90;;;0.90;94.40;;;;;;5056772;28;20253;-79
2021/03/06 05:46:06;;;;;;;10.63;6.17;;;0.90;94.40;;;;;;5052323;28;20024;-79
2021/03/06 05:48:33;;;;;;;15.60;7.20;;;0.90;94.40;;;;;;5089508;28;20036;-79
2021/03/06 05:51:01;;;;;;;13.87;6.47;;;0.80;94.40;;;;;;5089221;28;20085;-79
2021/03/06 05:53:29;;;;;;;16.87;7.77;;;0.90;94.50;;;;;;5093661;28;20039;-79
2021/03/06 05:55:58;;;;;;;15.30;6.47;;;0.90;94.30;;;;;;5052589;28;20035;-80
2021/03/06 05:58:25;;;;;;;12.03;6.80;;;0.90;94.40;;;;;;5062710;28;20101;-79
2021/03/06 06:00:52;;;;;;;14.50;7.90;;;0.80;94.60;;;;;;5060409;28;20055;-79
2021/03/06 06:03:21;;;;;;;11.63;6.67;;;0.90;94.40;;;;;;5079661;28;20067;-79
2021/03/06 06:05:58;;;;;;;15.13;7.47;;;0.90;94.50;;;;;;5078554;28;20043;-74
2021/03/06 06:08:25;;;;;;;16.53;8.53;;;0.90;94.50;;;;;;5069700;28;20039;-74
2021/03/06 06:10:51;;;;;;;13.07;7.00;;;1.00;94.50;;;;;;5057865;28;20072;-74
2021/03/06 06:13:17;;;;;;;11.90;6.07;;;1.00;94.50;;;;;;5057944;28;20134;-73
2021/03/06 06:15:43;;;;;;;10.20;5.17;;;1.00;94.60;;;;;;5077791;28;20040;-74
2021/03/06 06:18:09;;;;;;;9.23;5.50;;;1.00;94.50;;;;;;5061927;28;21064;-74
2021/03/06 06:20:39;;;;;;;10.83;5.73;;;1.00;94.50;;;;;;5078920;28;20040;-74
2021/03/06 06:23:13;;;;;;;14.93;6.60;;;1.00;94.60;;;;;;5076467;28;20032;-74
2021/03/06 06:25:40;;;;;;;10.30;6.17;;;1.00;94.50;;;;;;5059221;28;20051;-74
2021/03/06 06:28:07;;;;;;;8.97;5.40;;;1.00;94.50;;;;;;5084552;28;20052;-74
2021/03/06 06:30:33;;;;;;;9.97;4.27;;;1.10;94.60;;;;;;5043868;28;20039;-73
2021/03/06 06:33:00;;;;;;;16.00;7.07;;;1.10;94.70;;;;;;5066342;28;20515;-74
2021/03/06 06:35:39;;;;;;;11.70;5.47;;;1.10;94.60;;;;;;5060913;28;20163;-74
2021/03/06 06:38:06;;;;;;;12.77;5.20;;;1.10;94.60;;;;;;5080034;28;20040;-74
2021/03/06 06:40:40;;;;;;;10.23;5.33;;;1.20;94.60;;;;;;5069076;28;20039;-74
2021/03/06 06:43:38;;;;;;;12.53;5.70;;;1.30;94.60;;;;;;5077103;28;20036;-73
2021/03/06 06:46:04;;;;;;;11.43;5.17;;;1.40;94.60;;;;;;5055800;28;20060;-74
2021/03/06 06:48:29;;;;;;;10.80;5.80;;;1.30;94.40;;;;;;5075775;28;20051;-74
2021/03/06 06:51:09;;;;;;;8.33;5.10;;;1.40;94.40;;;;;;5068205;28;20380;-74
2021/03/06 06:53:35;;;;;;;14.07;5.73;;;1.40;94.40;;;;;;5083944;28;20055;-74
2021/03/06 06:56:01;;;;;;;10.20;5.87;;;1.40;94.40;;;;;;5030621;28;20067;-74
2021/03/06 06:58:34;;;;;;;8.47;5.00;;;1.40;94.60;;;;;;5058204;28;20075;-74
2021/03/06 07:01:20;;;;;;;7.97;4.70;;;1.40;94.40;;;;;;5065175;28;20440;-74
2021/03/06 07:03:46;;;;;;;11.30;4.73;;;1.50;94.40;;;;;;5046794;28;20044;-74
2021/03/06 07:06:13;;;;;;;10.10;5.40;;;1.60;94.40;;;;;;5043382;28;22007;-74
2021/03/06 07:08:39;;;;;;;9.90;4.60;;;1.60;94.40;;;;;;5081813;28;20605;-74
2021/03/06 07:11:05;;;;;;;9.80;5.27;;;1.60;94.40;;;;;;5063862;28;20101;-74
2021/03/06 07:13:41;;;;;;;8.77;4.57;;;1.60;94.40;;;;;;5078249;28;20044;-74
2021/03/06 07:16:06;;;;;;;12.43;4.03;;;1.70;94.40;;;;;;5077078;28;20040;-74
2021/03/06 07:18:32;;;;;;;7.40;3.37;;;1.80;94.30;;;;;;5074127;28;20048;-74
2021/03/06 07:20:58;;;;;;;9.07;3.53;;;1.70;94.30;;;;;;5049319;28;20036;-74
2021/03/06 07:23:26;;;;;;;7.83;4.10;;;1.80;94.20;;;;;;5064195;28;20040;-74
2021/03/06 07:25:54;;;;;;;8.43;3.40;;;1.90;94.20;;;;;;5081607;28;20457;-74
2021/03/06 07:28:21;;;;;;;8.70;3.27;;;1.90;94.10;;;;;;5074424;28;20040;-74
2021/03/06 07:30:48;;;;;;;14.37;4.03;;;2.00;94.00;;;;;;5045856;28;20032;-74
2021/03/06 07:33:17;;;;;;;11.97;3.77;;;2.00;93.80;;;;;;5070922;28;20150;-74
2021/03/06 07:35:44;;;;;;;7.67;3.60;;;2.00;93.80;;;;;;5064406;28;20051;-72
2021/03/06 07:38:30;;;;;;;9.93;3.57;;;2.00;93.80;;;;;;5074235;28;20522;-73
2021/03/06 07:41:03;;;;;;;6.23;2.90;;;2.10;93.80;;;;;;5080958;28;20396;-73
2021/03/06 07:43:31;;;;;;;9.63;4.03;;;2.20;93.90;;;;;;5068389;28;20029;-73
2021/03/06 07:45:58;;;;;;;10.83;3.67;;;2.20;93.80;;;;;;5069093;28;20047;-73
2021/03/06 07:48:33;;;;;;;7.30;3.03;;;2.30;93.90;;;;;;5067642;28;20529;-73
2021/03/06 07:50:59;;;;;;;13.40;3.37;;;2.40;93.90;;;;;;5083129;28;20036;-73
2021/03/06 07:53:27;;;;;;;17.87;12.07;;;2.50;93.80;;;;;;5071293;28;20482;-73
2021/03/06 07:55:53;;;;;;;9.43;4.20;;;2.50;93.80;;;;;;5045536;28;20036;-73
2021/03/06 07:58:22;;;;;;;11.97;4.43;;;2.60;93.60;;;;;;5068927;28;20089;-73
2021/03/06 08:00:53;;;;;;;12.17;4.13;;;2.70;93.60;;;;;;5081521;28;20032;-73
2021/03/06 08:03:22;;;;;;;10.40;3.10;;;2.70;93.60;;;;;;5081605;28;20126;-73
2021/03/06 08:05:49;;;;;;;8.63;3.70;;;2.80;93.60;;;;;;5082347;28;20122;-73
2021/03/06 08:08:34;;;;;;;9.00;3.40;;;2.80;93.50;;;;;;5071532;28;20035;-73
2021/03/06 08:11:05;;;;;;;10.40;4.17;;;2.90;93.50;;;;;;5075485;28;20055;-73
2021/03/06 08:13:33;;;;;;;8.57;2.63;;;3.00;93.40;;;;;;5103876;28;20132;-73
2021/03/06 08:16:19;;;;;;;10.73;3.60;;;3.10;93.30;;;;;;5080417;28;20673;-79
2021/03/06 08:18:45;;;;;;;9.03;2.93;;;3.00;93.10;;;;;;5099140;28;20043;-79
2021/03/06 08:21:39;;;;;;;8.63;2.70;;;3.00;93.20;;;;;;5085368;28;20111;-78
2021/03/06 08:24:14;;;;;;;6.27;2.87;;;3.00;93.40;;;;;;5101380;28;20042;-79
2021/03/06 08:26:44;;;;;;;6.37;2.40;;;3.00;93.40;;;;;;5101469;28;21763;-79
2021/03/06 08:29:20;;;;;;;6.67;2.50;;;3.00;93.50;;;;;;5102008;28;20044;-79
2021/03/06 08:31:53;;;;;;;9.23;1.93;;;3.00;93.60;;;;;;5102367;28;20036;-79
2021/03/06 08:34:29;;;;;;;4.97;1.40;;;3.00;93.60;;;;;;5084304;28;21074;-79
2021/03/06 08:37:16;;;;;;;6.03;1.40;;;3.10;93.60;;;;;;5082928;28;20542;-79
2021/03/06 08:40:02;;;;;;;3.90;1.73;;;3.10;93.50;;;;;;5103711;28;20035;-79
2021/03/06 08:42:44;;;;;;;7.47;1.33;;;3.10;93.40;;;;;;5085428;28;20592;-73
2021/03/06 08:45:28;;;;;;;2.50;1.07;;;3.10;93.10;;;;;;5078644;28;20458;-73
2021/03/06 08:47:58;;;;;;;4.50;0.90;;;3.10;93.10;;;;;;5100543;28;21058;-73
2021/03/06 08:50:25;;;;;;;1.80;0.70;;;3.20;93.20;;;;;;5082827;28;20093;-73
2021/03/06 08:53:00;;;;;;;2.37;0.93;;;3.40;93.40;;;;;;5098920;28;20043;-73
2021/03/06 08:55:32;;;;;;;4.23;0.90;;;3.70;93.20;;;;;;5078867;28;20067;-73
2021/03/06 08:58:05;;;;;;;2.30;0.70;;;4.00;92.90;;;;;;5099651;28;20044;-73
2021/03/06 09:01:00;;;;;;;2.40;0.60;;;4.20;92.10;;;;;;5106351;28;20039;-73
2021/03/06 09:03:27;;;;;;;3.57;0.70;;;4.30;91.70;;;;;;5103780;28;20142;-73
2021/03/06 09:05:58;;;;;;;2.57;0.90;;;4.40;90.90;;;;;;5099534;28;20401;-73
2021/03/06 09:08:26;;;;;;;3.83;1.10;;;4.40;90.60;;;;;;5085790;28;20487;-80
2021/03/06 09:10:56;;;;;;;4.07;1.13;;;4.20;90.70;;;;;;5047437;28;832267;-79
2021/03/06 09:13:23;;;;;;;1.13;0.50;;;4.10;91.20;;;;;;5098465;28;20039;-78
2021/03/06 09:15:54;;;;;;;2.57;0.63;;;4.20;91.50;;;;;;5098887;28;20983;-79
2021/03/06 09:18:39;;;;;;;3.73;0.90;;;4.40;91.40;;;;;;5104978;28;20046;-78
2021/03/06 09:21:08;;;;;;;5.53;1.00;;;4.60;91.40;;;;;;5080043;28;20039;-80
2021/03/06 09:23:41;;;;;;;2.30;0.83;;;4.70;91.10;;;;;;5097567;28;20054;-79
2021/03/06 09:26:16;;;;;;;4.37;1.00;;;4.70;90.90;;;;;;5100346;28;20047;-79
2021/03/06 09:28:43;;;;;;;2.77;0.93;;;4.70;91.10;;;;;;5097508;28;20035;-79
2021/03/06 09:31:21;;;;;;;4.93;1.20;;;4.60;91.40;;;;;;5069721;28;20051;-79
2021/03/06 09:33:50;;;;;;;6.30;1.30;;;4.40;91.20;;;;;;5079345;28;20564;-79
2021/03/06 09:36:21;;;;;;;5.27;1.30;;;4.30;91.50;;;;;;5086287;28;20032;-80
2021/03/06 09:38:52;;;;;;;4.33;1.20;;;4.30;91.90;;;;;;5080901;28;20494;-79
2021/03/06 09:41:23;;;;;;;5.28;1.20;;;4.20;91.90;;;;;;5103845;28;20118;-79
2021/03/06 09:43:52;;;;;;;5.93;1.60;;;4.20;91.80;;;;;;5092724;28;20088;-78
2021/03/06 09:46:26;;;;;;;4.13;1.43;;;4.20;92.20;;;;;;5103143;28;20062;-78
2021/03/06 09:49:00;;;;;;;5.90;1.80;;;4.40;92.60;;;;;;5071651;28;20051;-80
2021/03/06 09:51:53;;;;;;;4.10;1.37;;;4.50;92.30;;;;;;5095478;28;20046;-79
2021/03/06 09:54:25;;;;;;;4.90;1.47;;;4.60;92.20;;;;;;5099506;28;20109;-79
2021/03/06 09:56:56;;;;;;;5.60;1.87;;;4.70;92.00;;;;;;5080990;28;20611;-80
2021/03/06 09:59:22;;;;;;;;;;;4.70;91.90;;;;;;5076985;28;20120;-79
2021/03/06 10:01:49;;;;;;;5.93;1.60;;;4.90;91.80;;;;;;5064982;28;19919;-79
2021/03/06 10:04:21;;;;;;;4.20;1.40;;;4.90;91.60;;;;;;5101578;28;20063;-78
2021/03/06 10:06:54;;;;;;;7.70;1.50;;;4.90;91.30;;;;;;5098856;28;20062;-78
2021/03/06 10:09:22;;;;;;;7.70;1.87;;;5.10;91.50;;;;;;5100766;28;20054;-79
2021/03/06 10:11:52;;;;;;;5.47;1.90;;;5.20;91.00;;;;;;5086224;28;20096;-79
2021/03/06 10:14:21;;;;;;;4.95;1.60;;;5.20;90.70;;;;;;5088787;28;20103;-78
2021/03/06 10:16:53;;;;;;;8.03;1.63;;;5.20;90.80;;;;;;5079398;28;20032;-79
2021/03/06 10:19:21;;;;;;;5.63;1.90;;;5.30;90.40;;;;;;5085050;28;20063;-79
2021/03/06 10:22:00;;;;;;;7.27;1.67;;;5.40;90.50;;;;;;5098869;28;20987;-78
2021/03/06 10:24:27;;;;;;;6.73;1.73;;;5.50;90.50;;;;;;5086446;28;20063;-79
2021/03/06 10:27:01;;;;;;;5.07;1.57;;;5.40;89.60;;;;;;5095000;28;20032;-78
2021/03/06 10:29:28;;;;;;;5.27;1.73;;;5.50;90.00;;;;;;5102715;28;20043;-79
2021/03/06 10:31:59;;;;;;;5.57;2.10;;;5.60;89.70;;;;;;5083204;28;20140;-79
2021/03/06 10:34:26;;;;;;;;;;;5.70;89.50;;;;;;5087595;28;20104;-78
2021/03/06 10:37:12;;;;;;;7.30;2.10;;;5.80;88.80;;;;;;5113616;27;20198;-78
2021/03/06 10:40:04;;;;;;;6.40;2.00;;;5.80;88.40;;;;;;5076647;28;20522;-79
2021/03/06 10:42:42;;;;;;;6.23;2.27;;;5.80;87.80;;;;;;5064713;28;20040;-79
2021/03/06 10:45:10;;;;;;;6.23;2.37;;;5.80;88.50;;;;;;5091971;28;20031;-80
2021/03/06 10:47:46;;;;;;;3.43;1.80;;;5.90;89.10;;;;;;5076554;28;20126;-78
2021/03/06 10:50:29;;;;;;;4.13;1.90;;;6.00;87.80;;;;;;5076902;28;20382;-79
2021/03/06 10:53:15;;;;;;;8.33;2.37;;;6.10;88.10;;;;;;5099493;28;20031;-78
2021/03/06 10:55:46;;;;;;;5.77;2.10;;;6.20;88.00;;;;;;5084395;28;20039;-79
2021/03/06 10:58:12;;;;;;;4.88;1.77;;;6.20;87.80;;;;;;5075714;28;20036;-79
2021/03/06 11:00:40;;;;;;;5.47;2.70;;;6.20;87.40;;;;;;5081165;28;20039;-79
2021/03/06 11:03:08;;;;;;;7.17;2.60;;;6.10;86.90;;;;;;5076172;28;20405;-79
2021/03/06 11:05:35;;;;;;;9.10;2.97;;;6.10;87.20;;;;;;5094321;28;20040;-79
2021/03/06 11:08:21;;;;;;;6.87;2.60;;;6.00;87.40;;;;;;5091375;28;20092;-79
2021/03/06 11:10:51;;;;;;;8.20;3.90;;;5.90;87.80;;;;;;5071165;28;20066;-79
2021/03/06 11:13:21;;;;;;;6.40;2.33;;;5.80;88.20;;;;;;5081537;28;20097;-79
2021/03/06 11:15:49;;;;;;;7.15;3.72;;;5.60;89.00;;;;;;5046091;28;20148;-79
2021/03/06 11:18:15;;;;;;;8.07;2.87;;;5.50;90.00;;;;;;5071670;28;20036;-79
2021/03/06 11:20:42;;;;;;;4.30;2.00;;;5.60;90.30;;;;;;5063382;28;20566;-79
2021/03/06 11:23:08;;;;;;;3.23;1.83;;;5.50;90.30;;;;;;5077164;28;20118;-75
2021/03/06 11:25:35;;;;;;;7.97;2.30;;;5.60;90.30;;;;;;5078890;28;20028;-74
2021/03/06 11:28:06;;;;;;;3.77;1.57;;;5.60;90.30;;;;;;5062352;28;20123;-74
2021/03/06 11:30:38;;;;;;;5.07;1.40;;;5.60;90.40;;;;;;5082294;28;20046;-74
2021/03/06 11:33:07;;;;;;;4.87;1.63;;;5.50;90.10;;;;;;5077748;28;20040;-74
2021/03/06 11:35:33;;;;;;;4.00;1.43;;;5.60;90.20;;;;;;5080985;28;20633;-74
2021/03/06 11:37:59;;;;;;;3.33;1.37;;;5.60;90.00;;;;;;5082932;28;20052;-74
2021/03/06 11:40:30;;;;;;;4.47;1.37;;;5.60;90.20;;;;;;5085302;28;20205;-75
2021/03/06 11:42:56;;;;;;;4.80;1.43;;;5.60;90.20;;;;;;5077558;28;20458;-74
2021/03/06 11:45:22;;;;;;;4.97;1.60;;;5.70;90.10;;;;;;5071485;28;20109;-74
2021/03/06 11:47:50;;;;;;;3.70;1.40;;;5.70;90.00;;;;;;5054116;28;20059;-74
2021/03/06 11:50:19;;;;;;;3.63;1.50;;;5.80;90.10;;;;;;5088265;28;20569;-79
2021/03/06 11:52:45;;;;;;;5.00;1.50;;;5.90;89.30;;;;;;5073517;28;20036;-79
2021/03/06 11:55:13;;;;;;;6.23;1.53;;;5.90;89.30;;;;;;5069564;28;20048;-79
2021/03/06 11:57:39;;;;;;;3.83;1.40;;;6.00;88.90;;;;;;5087706;28;20040;-79
2021/03/06 12:00:09;;;;;;;8.60;1.80;;;6.10;88.30;;;;;;5090665;28;20040;-79
2021/03/06 12:02:35;;;;;;;4.90;1.60;;;6.20;88.80;;;;;;5074360;28;20052;-79
2021/03/06 12:05:02;;;;;;;6.73;3.60;;;6.30;88.90;;;;;;5083030;28;20064;-79
2021/03/06 12:07:28;;;;;;;7.17;1.67;;;6.50;88.20;;;;;;5072457;28;20498;-79
2021/03/06 12:09:54;;;;;;;4.53;1.30;;;6.60;87.10;;;;;;5078797;28;20048;-74
2021/03/06 12:12:20;;;;;;;9.87;2.20;;;6.60;87.50;;;;;;5054256;28;20043;-74
2021/03/06 12:14:52;;;;;;;4.27;1.57;;;6.60;86.80;;;;;;5078787;28;20038;-74
2021/03/06 12:17:18;;;;;;;4.13;1.40;;;6.60;87.20;;;;;;5073683;28;20441;-74
2021/03/06 12:19:44;;;;;;;4.23;1.53;;;6.60;86.70;;;;;;5054688;28;20044;-75
2021/03/06 12:22:10;;;;;;;4.70;1.57;;;6.60;86.70;;;;;;5084600;28;20089;-74
2021/03/06 12:24:39;;;;;;;3.63;1.37;;;6.50;87.40;;;;;;5053337;28;20169;-74
2021/03/06 12:27:05;;;;;;;5.37;1.90;;;6.70;87.60;;;;;;5089177;28;20050;-74
2021/03/06 12:29:31;;;;;;;4.83;1.97;;;6.60;87.90;;;;;;5071733;28;20126;-75
2021/03/06 12:31:56;;;;;;;5.07;1.90;;;6.60;88.20;;;;;;5099628;27;20131;-75
2021/03/06 12:34:23;;;;;;;4.57;1.93;;;6.60;88.80;;;;;;5081686;28;20044;-75
2021/03/06 12:36:50;;;;;;;4.83;1.60;;;6.70;88.30;;;;;;5103591;27;20040;-74
2021/03/06 12:39:16;;;;;;;3.80;1.50;;;6.80;87.60;;;;;;5105995;27;20048;-75
2021/03/06 12:41:43;;;;;;;3.20;1.27;;;6.80;86.80;;;;;;5067862;28;20486;-75
2021/03/06 12:44:09;;;;;;;4.43;1.60;;;6.80;86.30;;;;;;5079632;28;20364;-75
2021/03/06 12:46:35;;;;;;;3.30;1.47;;;6.90;86.30;;;;;;5093604;27;20116;-75
2021/03/06 12:49:03;;;;;;;4.23;1.47;;;7.00;86.20;;;;;;5050677;28;20032;-75
2021/03/06 12:51:29;;;;;;;3.53;1.30;;;6.90;85.10;;;;;;5104338;27;20042;-75
2021/03/06 12:53:55;;;;;;;4.77;1.33;;;6.90;85.00;;;;;;5089085;28;20039;-75
2021/03/06 12:56:20;;;;;;;3.80;1.87;;;6.80;84.70;;;;;;5084554;27;20088;-75
2021/03/06 12:58:46;;;;;;;3.03;1.70;;;6.80;84.80;;;;;;5087658;28;20039;-75
2021/03/06 13:01:21;;;;;;;4.30;1.37;;;6.80;86.00;;;;;;5077145;28;20053;-75
2021/03/06 13:03:47;;;;;;;5.33;1.43;;;6.60;85.00;;;;;;5084735;28;20032;-74